Time;durP1;ratioP1;P1;durP2;ratioP2;P2;SDS_P1;SDS_P2;PMS_P1;PMS_P2;Temp;Humidity;BMP_temperature;BMP_pressure;BME280_temperature;BME280_humidity;BME280_pressure;Samples;Min_cycle;Max_cycle;Signal;HPM_P1;HPM_P2
2022/10/07 00:01:47;;;;;;;5.40;2.70;;;;;;;8.89;72.93;100564.44;4959661;28;20027;-94
2022/10/07 00:04:15;;;;;;;5.38;2.97;;;;;;;8.99;72.47;100562.03;4944104;28;20034;-92
2022/10/07 00:06:41;;;;;;;7.75;3.10;;;;;;;8.89;73.24;100557.19;4959088;28;20468;-93
2022/10/07 00:09:06;;;;;;;8.25;3.97;;;;;;;8.79;73.62;100559.59;4958124;28;20026;-93
2022/10/07 00:11:32;;;;;;;11.32;4.97;;;;;;;8.78;74.09;100571.41;4942684;28;20508;-93
2022/10/07 00:14:01;;;;;;;9.75;4.85;;;;;;;8.63;74.07;100560.22;4958718;28;20629;-93
2022/10/07 00:16:29;;;;;;;5.40;3.25;;;;;;;8.62;75.01;100558.59;4943324;28;20030;-93
2022/10/07 00:18:56;;;;;;;9.40;3.97;;;;;;;8.50;74.73;100553.97;4958962;28;20027;-93
2022/10/07 00:21:23;;;;;;;5.47;3.45;;;;;;;8.42;74.86;100553.47;4959736;28;20162;-93
2022/10/07 00:23:51;;;;;;;5.25;3.17;;;;;;;8.43;75.14;100561.31;4958722;28;20081;-93
2022/10/07 00:26:20;;;;;;;6.18;2.97;;;;;;;8.47;75.26;100577.78;4943355;28;20022;-93
2022/10/07 00:28:46;;;;;;;6.00;3.33;;;;;;;8.42;75.32;100573.06;4958157;28;20082;-93
2022/10/07 00:31:53;;;;;;;9.18;3.67;;;;;;;8.26;75.55;100553.00;4958467;28;20162;-93
2022/10/07 00:34:18;;;;;;;5.88;3.17;;;;;;;8.26;75.51;100568.31;4919379;29;20038;-93
2022/10/07 00:36:44;;;;;;;7.43;3.55;;;;;;;8.23;76.13;100560.69;4904318;29;20043;-93
2022/10/07 00:39:11;;;;;;;4.28;3.00;;;;;;;8.19;76.47;100568.34;4904182;29;20040;-93
2022/10/07 00:41:41;;;;;;;6.00;3.20;;;;;;;8.03;75.92;100548.31;4904531;29;20099;-93
2022/10/07 00:44:35;;;;;;;5.10;3.30;;;;;;;8.16;76.18;100574.19;4910898;29;20114;-93
2022/10/07 00:47:30;;;;;;;4.70;3.13;;;;;;;8.12;76.34;100566.81;4898337;29;20036;-93
2022/10/07 00:50:06;;;;;;;6.75;3.20;;;;;;;8.00;76.53;100566.72;4882436;29;20143;-93
2022/10/07 00:52:34;;;;;;;8.02;3.10;;;;;;;7.85;76.63;100549.09;4882417;29;20043;-93
2022/10/07 00:55:03;;;;;;;7.93;3.45;;;;;;;7.86;76.79;100536.50;4866994;29;20044;-93
2022/10/07 00:57:28;;;;;;;10.15;4.07;;;;;;;7.88;77.35;100537.94;4867268;29;20036;-93
2022/10/07 00:59:56;;;;;;;6.90;3.42;;;;;;;7.96;77.02;100552.09;4867524;29;20082;-93
2022/10/07 01:02:23;;;;;;;6.15;3.00;;;;;;;7.87;77.26;100543.53;4851308;29;20052;-94
2022/10/07 01:04:50;;;;;;;6.18;3.33;;;;;;;7.76;77.36;100528.16;4900781;29;20433;-93
2022/10/07 01:07:19;;;;;;;4.65;3.13;;;;;;;7.75;76.98;100538.06;4885034;29;20052;-92
2022/10/07 01:09:48;;;;;;;4.72;2.95;;;;;;;7.80;77.15;100557.00;4870249;29;20039;-93
2022/10/07 01:12:40;;;;;;;4.95;2.92;;;;;;;7.69;77.21;100555.03;4884430;29;20040;-93
2022/10/07 01:15:09;;;;;;;6.10;2.95;;;;;;;7.72;77.36;100567.16;4902166;29;20486;-93
2022/10/07 01:17:41;;;;;;;8.63;3.97;;;;;;;7.69;77.80;100565.75;4929274;28;20552;-93
2022/10/07 01:20:34;;;;;;;7.70;3.85;;;;;;;7.66;77.53;100558.97;4943209;28;20027;-93
2022/10/07 01:23:29;;;;;;;4.75;2.83;;;;;;;7.65;77.06;100560.00;4975069;28;20039;-93
2022/10/07 01:26:10;;;;;;;6.53;3.40;;;;;;;7.58;77.95;100547.72;4950830;28;20043;-93
2022/10/07 01:28:42;;;;;;;6.60;4.10;;;;;;;7.60;78.13;100554.50;4956968;28;20019;-93
2022/10/07 01:31:09;;;;;;;8.82;3.80;;;;;;;7.59;78.52;100547.47;4972546;28;20041;-93
2022/10/07 01:33:34;;;;;;;6.40;3.72;;;;;;;7.62;77.58;100540.88;4941675;28;20473;-94
2022/10/07 01:36:05;;;;;;;5.68;3.83;;;;;;;7.61;77.96;100532.00;4941097;28;20041;-93
2022/10/07 01:38:32;;;;;;;5.70;3.77;;;;;;;7.66;77.51;100539.41;4957282;28;20477;-94
2022/10/07 01:41:07;;;;;;;6.50;3.72;;;;;;;7.56;77.30;100528.38;4941917;28;20034;-94
2022/10/07 01:43:35;;;;;;;8.38;3.22;;;;;;;7.43;76.75;100524.75;4966781;28;20058;-94
2022/10/07 01:46:02;;;;;;;5.35;3.35;;;;;;;7.59;77.56;100552.03;4968653;28;20049;-95
2022/10/07 01:48:31;;;;;;;8.32;3.58;;;;;;;7.39;77.87;100522.75;4968290;28;20045;-94
2022/10/07 01:50:59;;;;;;;6.72;3.58;;;;;;;7.34;77.53;100519.88;4953081;28;20031;-95
2022/10/07 01:53:40;;;;;;;12.02;3.83;;;;;;;7.21;77.56;100512.78;4967977;28;20043;-96
2022/10/07 01:56:19;;;;;;;7.03;3.50;;;;;;;7.37;78.00;100544.38;4961541;28;20038;-96
2022/10/07 01:59:18;;;;;;;5.95;3.92;;;;;;;7.32;77.63;100533.47;4977912;28;20031;-96
2022/10/07 02:02:07;;;;;;;10.07;3.92;;;;;;;7.41;77.05;100529.50;4977687;28;20054;-96
2022/10/07 02:05:02;;;;;;;9.10;4.40;;;;;;;7.17;77.87;100514.25;4976490;28;20400;-96
2022/10/07 02:07:36;;;;;;;9.68;4.90;;;;;;;7.31;78.23;100539.91;4971248;28;20125;-96
2022/10/07 02:10:11;;;;;;;8.40;4.60;;;;;;;7.31;78.39;100534.53;4959363;28;20017;-95
2022/10/07 02:13:00;;;;;;;7.82;4.32;;;;;;;7.27;78.45;100536.00;4975251;28;20023;-96
2022/10/07 02:16:01;;;;;;;7.28;4.07;;;;;;;7.17;77.81;100517.75;4957559;28;20117;-96
2022/10/07 02:18:30;;;;;;;8.23;4.20;;;;;;;7.15;78.32;100517.13;4938237;29;20108;-95
2022/10/07 02:20:58;;;;;;;8.13;3.75;;;;;;;7.23;78.11;100537.47;4938945;29;20111;-96
2022/10/07 02:23:26;;;;;;;8.57;4.05;;;;;;;7.12;78.29;100530.13;4922372;29;20044;-95
2022/10/07 02:25:55;;;;;;;7.75;3.80;;;;;;;7.10;78.39;100538.41;4907972;29;20038;-94
2022/10/07 02:28:21;;;;;;;7.13;3.45;;;;;;;7.09;77.72;100515.31;4922551;29;20502;-95
2022/10/07 02:30:52;;;;;;;9.13;4.60;;;;;;;7.12;78.40;100522.94;4907182;29;20032;-95
2022/10/07 02:33:17;;;;;;;8.00;4.38;;;;;;;7.11;79.06;100525.81;4906816;29;20107;-95
2022/10/07 02:35:51;;;;;;;7.70;4.63;;;;;;;7.28;78.29;100543.84;4891879;29;20040;-96
2022/10/07 02:38:18;;;;;;;6.05;4.18;;;;;;;7.18;77.71;100510.50;4923123;29;20619;-96
2022/10/07 02:40:53;;;;;;;6.82;4.20;;;;;;;7.28;77.93;100513.53;4909151;29;20040;-94
2022/10/07 02:43:43;;;;;;;7.75;3.83;;;;;;;7.39;77.59;100514.69;4924259;29;20047;-95
2022/10/07 02:46:19;;;;;;;6.80;4.10;;;;;;;7.42;77.31;100533.00;4908749;29;20035;-95
2022/10/07 02:49:09;;;;;;;8.43;4.07;;;;;;;7.22;77.07;100514.41;4916678;28;20038;-96
2022/10/07 02:51:46;;;;;;;8.85;4.68;;;;;;;7.22;77.96;100525.13;4944968;28;20034;-95
2022/10/07 02:54:11;;;;;;;9.40;3.88;;;;;;;7.14;77.28;100520.03;4977528;28;20023;-96
2022/10/07 02:56:37;;;;;;;6.45;3.92;;;;;;;7.17;76.86;100528.44;4961451;28;20041;-95
2022/10/07 02:59:04;;;;;;;7.93;4.25;;;;;;;7.16;77.02;100536.69;4945142;28;20053;-95
2022/10/07 03:01:32;;;;;;;11.05;4.85;;;;;;;7.06;78.05;100548.72;4961446;28;20031;-95
2022/10/07 03:03:58;;;;;;;14.18;5.07;;;;;;;6.90;78.13;100522.47;4960410;28;20070;-96
2022/10/07 03:06:24;;;;;;;9.35;5.40;;;;;;;7.11;77.97;100558.78;4945279;28;20037;-95
2022/10/07 03:08:52;;;;;;;8.60;4.97;;;;;;;7.11;77.83;100547.25;4961041;28;20031;-96
2022/10/07 03:11:17;;;;;;;16.30;6.20;;;;;;;7.29;77.55;100544.66;4945787;28;20030;-95
2022/10/07 03:13:44;;;;;;;17.35;5.55;;;;;;;7.27;77.27;100523.44;4960392;28;20037;-95
2022/10/07 03:16:11;;;;;;;14.90;5.63;;;;;;;7.50;76.69;100538.09;4961089;28;20515;-94
2022/10/07 03:18:37;;;;;;;10.85;4.97;;;;;;;7.71;76.37;100552.94;4944943;28;20038;-96
2022/10/07 03:21:03;;;;;;;13.43;5.47;;;;;;;7.54;76.23;100550.00;4962196;28;20110;-94
2022/10/07 03:23:29;;;;;;;10.77;5.10;;;;;;;7.38;77.01;100550.56;4944858;28;20056;-95
2022/10/07 03:25:55;;;;;;;8.07;4.68;;;;;;;7.38;77.22;100545.19;4945359;28;20033;-96
2022/10/07 03:28:22;;;;;;;10.05;5.50;;;;;;;7.26;77.13;100545.06;4960483;28;20019;-96
2022/10/07 03:30:49;;;;;;;9.05;4.95;;;;;;;7.31;77.07;100537.22;4944856;28;20039;-96
2022/10/07 03:33:15;;;;;;;8.68;4.80;;;;;;;7.20;77.49;100533.38;4960138;28;20132;-96
2022/10/07 03:35:41;;;;;;;10.57;4.93;;;;;;;7.28;76.83;100546.50;4945116;28;20109;-95
2022/10/07 03:38:07;;;;;;;11.60;5.28;;;;;;;7.09;76.93;100520.69;4944684;28;20066;-95
2022/10/07 03:40:38;;;;;;;6.75;3.65;;;;;;;7.09;77.00;100532.19;4944350;28;20062;-96
2022/10/07 03:43:08;;;;;;;9.00;4.40;;;;;;;7.11;77.62;100545.38;4977162;28;20026;-96
2022/10/07 03:45:44;;;;;;;8.48;4.28;;;;;;;6.86;77.40;100527.41;4961582;28;20473;-95
2022/10/07 03:48:11;;;;;;;7.03;3.78;;;;;;;6.82;78.01;100528.88;4944847;28;20035;-94
2022/10/07 03:50:37;;;;;;;8.05;4.32;;;;;;;6.81;78.11;100531.78;4961120;28;20030;-96
2022/10/07 03:53:03;;;;;;;6.53;4.00;;;;;;;6.82;78.13;100542.25;4961146;28;20031;-95
2022/10/07 03:55:30;;;;;;;6.60;3.95;;;;;;;6.76;77.96;100540.44;4945944;28;20038;-96
2022/10/07 03:57:57;;;;;;;10.07;4.47;;;;;;;6.73;78.26;100535.53;4944550;28;20025;-95
2022/10/07 04:00:27;;;;;;;6.45;3.78;;;;;;;6.78;77.73;100537.56;4967598;28;20129;-94
2022/10/07 04:02:53;;;;;;;7.47;4.65;;;;;;;6.77;79.23;100544.78;4955281;28;20034;-95
2022/10/07 04:05:34;;;;;;;8.50;4.50;;;;;;;6.77;78.82;100539.44;4951976;28;20033;-96
2022/10/07 04:08:01;;;;;;;8.20;3.92;;;;;;;6.76;78.21;100532.41;4961712;28;20038;-95
2022/10/07 04:10:28;;;;;;;5.80;3.85;;;;;;;6.83;78.11;100551.94;4960740;28;20049;-96
2022/10/07 04:12:55;;;;;;;8.88;4.38;;;;;;;6.79;77.91;100539.22;4963264;28;20045;-94
2022/10/07 04:15:21;;;;;;;8.57;3.58;;;;;;;6.85;77.88;100554.44;4945290;28;20037;-93
2022/10/07 04:17:48;;;;;;;7.60;4.05;;;;;;;6.80;77.76;100546.19;4965934;28;20038;-96
2022/10/07 04:20:14;;;;;;;13.77;3.92;;;;;;;6.93;78.28;100575.59;4950869;28;20027;-96
2022/10/07 04:22:41;;;;;;;7.18;3.88;;;;;;;6.79;78.25;100556.09;4964178;28;20038;-92
2022/10/07 04:27:56;;;;;;;11.60;5.05;;;;;;;6.95;77.67;100549.41;4963527;28;20102;-93
2022/10/07 04:30:55;;;;;;;7.47;4.50;;;;;;;7.25;77.28;100581.75;4962462;28;20042;-96
2022/10/07 04:33:24;;;;;;;13.10;5.07;;;;;;;7.13;77.48;100561.25;4963049;28;20023;-95
2022/10/07 04:36:47;;;;;;;14.60;8.52;;;;;;;7.21;77.39;100585.09;4971644;28;20026;-96
2022/10/07 04:39:15;;;;;;;25.38;11.27;;;;;;;7.23;76.72;100558.91;4966277;28;20034;-91
2022/10/07 04:41:50;;;;;;;23.80;10.32;;;;;;;7.34;76.35;100566.25;4959494;28;20531;-91
2022/10/07 04:44:28;;;;;;;27.17;11.93;;;;;;;7.40;76.60;100570.72;4965679;28;20051;-96
2022/10/07 04:46:55;;;;;;;24.63;11.93;;;;;;;7.37;76.36;100567.69;4949376;28;20042;-96
2022/10/07 04:49:21;;;;;;;26.27;12.00;;;;;;;7.32;76.38;100565.63;4963610;28;20038;-94
2022/10/07 04:51:46;;;;;;;26.83;11.52;;;;;;;7.41;76.19;100571.56;4948086;28;20534;-94
2022/10/07 04:54:35;;;;;;;33.20;15.18;;;;;;;7.55;76.21;100591.03;4972191;28;20040;-95
2022/10/07 04:57:04;;;;;;;40.30;20.55;;;;;;;7.54;75.91;100576.81;4964134;28;20018;-94
2022/10/07 04:59:30;;;;;;;24.95;9.93;;;;;;;7.73;75.99;100585.72;4944196;28;20022;-94
2022/10/07 05:02:02;;;;;;;27.30;13.10;;;;;;;7.78;76.25;100577.00;4964515;28;20026;-94
2022/10/07 05:04:58;;;;;;;27.25;10.10;;;;;;;7.95;76.31;100596.03;4951173;28;20019;-94
2022/10/07 05:07:24;;;;;;;17.30;7.55;;;;;;;7.81;75.48;100590.81;4962758;28;20031;-94
2022/10/07 05:09:52;;;;;;;11.05;5.97;;;;;;;7.66;75.29;100584.97;4935255;28;20104;-93
2022/10/07 05:12:18;;;;;;;12.27;6.20;;;;;;;7.63;74.79;100609.53;4944327;28;20035;-92
2022/10/07 05:14:44;;;;;;;10.60;4.97;;;;;;;7.58;74.90;100583.38;5007795;23;20050;-95
2022/10/07 05:17:15;;;;;;;9.90;5.00;;;;;;;7.52;74.82;100586.94;4964802;28;20034;-96
2022/10/07 05:19:40;;;;;;;9.27;5.22;;;;;;;7.63;74.96;100596.13;4996227;28;20017;-95
2022/10/07 05:22:06;;;;;;;16.50;6.00;;;;;;;7.54;75.16;100568.78;4967643;28;20053;-92
2022/10/07 05:24:34;;;;;;;13.02;6.20;;;;;;;7.65;75.36;100581.44;4958648;28;20141;-93
2022/10/07 05:27:00;;;;;;;10.80;5.47;;;;;;;7.67;75.32;100576.69;4992358;28;20110;-93
2022/10/07 05:29:25;;;;;;;16.30;6.72;;;;;;;7.83;75.19;100588.72;4993835;28;20105;-94
2022/10/07 05:31:51;;;;;;;11.55;6.55;;;;;;;7.83;74.78;100586.03;4978185;28;20023;-94
2022/10/07 05:34:17;;;;;;;17.13;9.30;;;;;;;7.90;75.02;100592.16;4978334;28;20018;-96
2022/10/07 05:36:48;;;;;;;12.70;6.35;;;;;;;8.24;73.74;100598.03;4983329;28;20026;-94
2022/10/07 05:39:14;;;;;;;17.97;6.43;;;;;;;8.29;73.65;100595.50;4954764;28;20423;-92
2022/10/07 05:41:43;;;;;;;12.65;5.68;;;;;;;8.38;74.54;100587.94;4978152;28;20310;-96
2022/10/07 05:44:08;;;;;;;22.05;5.70;;;;;;;8.54;74.14;100581.19;4963579;28;20034;-92
2022/10/07 05:46:34;;;;;;;8.85;4.95;;;;;;;8.74;73.10;100617.75;4960650;28;20092;-96
2022/10/07 05:48:59;;;;;;;10.38;5.63;;;;;;;8.72;72.92;100620.66;4960923;28;20401;-92
2022/10/07 05:51:25;;;;;;;8.77;5.10;;;;;;;8.78;72.79;100616.22;4960949;28;20023;-95
2022/10/07 05:53:54;;;;;;;15.93;6.45;;;;;;;8.82;73.05;100598.59;4964374;28;20033;-92
2022/10/07 05:56:20;;;;;;;13.00;6.53;;;;;;;8.98;72.77;100611.41;4981094;28;20026;-94
2022/10/07 05:58:46;;;;;;;10.52;5.05;;;;;;;8.99;72.88;100602.31;4965202;28;20102;-91
2022/10/07 06:01:16;;;;;;;9.82;5.35;;;;;;;9.14;72.14;100603.78;4980460;28;20057;-93
2022/10/07 06:03:42;;;;;;;8.32;4.93;;;;;;;9.08;72.11;100586.69;4964404;28;20107;-94
2022/10/07 06:06:08;;;;;;;7.93;5.43;;;;;;;9.22;72.83;100595.41;4981893;28;20485;-93
2022/10/07 06:08:34;;;;;;;11.32;5.28;;;;;;;9.30;71.71;100587.00;4961095;28;20125;-91
2022/10/07 06:14:11;;;;;;;8.90;5.18;;;;;;;9.81;70.27;100612.44;4983484;28;20106;-93
2022/10/07 06:16:39;;;;;;;13.73;6.03;;;;;;;9.96;69.57;100603.09;4981177;28;20060;-96
2022/10/07 06:19:21;;;;;;;7.85;4.80;;;;;;;10.16;68.65;100605.44;4979614;28;20038;-95
2022/10/07 06:21:49;;;;;;;26.67;6.10;;;;;;;10.30;68.21;100588.84;4970072;28;20057;-95
2022/10/07 06:24:34;;;;;;;;;;;;;;;;;;;;;
2022/10/07 06:27:00;;;;;;;10.48;4.72;;;;;;;10.49;68.08;100581.41;4984361;28;20030;-95
2022/10/07 06:29:25;;;;;;;8.32;5.15;;;;;;;10.69;68.43;100581.00;4965587;28;20062;-92
2022/10/07 06:31:54;;;;;;;13.38;9.27;;;;;;;10.87;68.25;100603.44;4981916;28;20054;-95
2022/10/07 06:34:19;;;;;;;9.00;5.47;;;;;;;10.77;67.39;100593.31;4965242;28;20030;-94
2022/10/07 06:36:45;;;;;;;7.03;4.13;;;;;;;10.98;67.28;100599.91;4964325;28;20080;-95
2022/10/07 06:39:11;;;;;;;9.70;5.75;;;;;;;10.98;67.29;100590.97;4964608;28;20088;-95
2022/10/07 06:41:36;;;;;;;11.27;5.75;;;;;;;10.94;67.81;100587.97;4966478;28;20034;-94
2022/10/07 06:44:02;;;;;;;10.32;5.68;;;;;;;10.95;66.80;100586.06;4963652;28;20097;-94
2022/10/07 06:46:27;;;;;;;10.25;5.55;;;;;;;11.03;67.10;100593.78;4962733;28;20126;-93
2022/10/07 06:48:59;;;;;;;6.72;4.85;;;;;;;11.34;66.79;100614.00;4963626;28;20452;-93
2022/10/07 06:51:25;;;;;;;8.55;5.25;;;;;;;11.67;66.42;100612.41;4965097;28;20041;-95
2022/10/07 06:53:52;;;;;;;11.27;6.93;;;;;;;11.76;66.06;100593.94;4965419;28;20555;-95
2022/10/07 06:56:21;;;;;;;17.08;9.35;;;;;;;11.88;64.45;100587.41;4968646;28;20027;-96
2022/10/07 06:58:52;;;;;;;7.90;4.80;;;;;;;12.08;64.16;100596.88;4969550;28;20023;-95
2022/10/07 07:01:20;;;;;;;6.47;4.70;;;;;;;12.21;64.57;100588.41;4973987;28;20030;-95
2022/10/07 07:04:26;;;;;;;10.20;5.60;;;;;;;12.63;63.03;100611.38;4977549;28;20027;-96
2022/10/07 07:06:52;;;;;;;12.02;6.70;;;;;;;12.59;62.76;100586.72;5002789;28;20069;-95
2022/10/07 07:09:20;;;;;;;7.97;4.72;;;;;;;12.81;62.45;100602.94;4966979;28;20030;-94
2022/10/07 07:11:48;;;;;;;12.40;5.53;;;;;;;12.93;62.09;100600.94;4966234;28;20022;-95
2022/10/07 07:14:16;;;;;;;8.95;4.38;;;;;;;12.94;61.10;100602.53;4965169;28;20061;-95
2022/10/07 07:16:47;;;;;;;7.88;4.80;;;;;;;13.12;61.20;100595.16;4948520;28;20035;-93
2022/10/07 07:19:13;;;;;;;14.43;6.85;;;;;;;13.36;61.10;100601.09;4930594;28;20025;-93
2022/10/07 07:21:39;;;;;;;9.18;4.20;;;;;;;13.38;60.73;100588.13;4945033;28;20078;-94
2022/10/07 07:24:10;;;;;;;11.50;5.88;;;;;;;13.64;60.16;100605.41;4930659;28;20031;-96
2022/10/07 07:26:39;;;;;;;9.40;4.32;;;;;;;13.63;59.83;100581.31;4934663;28;20476;-94
2022/10/07 07:29:04;;;;;;;7.82;4.60;;;;;;;13.85;59.06;100576.59;4944936;28;20031;-94
2022/10/07 07:31:39;;;;;;;13.23;6.72;;;;;;;13.88;58.54;100583.38;4938940;28;20077;-96
2022/10/07 07:37:29;;;;;;;6.70;3.30;;;;;;;14.32;55.74;100589.34;4979648;28;20042;-95
2022/10/07 07:39:55;;;;;;;5.75;3.00;;;;;;;14.43;56.11;100581.25;4933106;28;20019;-96
2022/10/07 07:42:21;;;;;;;6.55;3.70;;;;;;;14.65;54.56;100589.22;4931017;28;20066;-95
2022/10/07 07:44:47;;;;;;;5.25;2.30;;;;;;;14.73;54.15;100570.56;4946416;28;20031;-92
2022/10/07 07:47:22;;;;;;;7.78;3.30;;;;;;;14.93;54.70;100577.13;4933354;28;20035;-96
2022/10/07 07:49:54;;;;;;;7.90;3.78;;;;;;;15.24;56.07;100601.59;4922998;29;20040;-96
2022/10/07 07:52:24;;;;;;;6.05;3.65;;;;;;;15.27;56.01;100571.19;4889539;29;20150;-96
2022/10/07 07:54:50;;;;;;;15.57;3.78;;;;;;;15.36;55.12;100583.97;4872847;29;20035;-96
2022/10/07 07:57:23;;;;;;;6.95;3.85;;;;;;;15.52;55.14;100587.50;4906332;29;20107;-96
2022/10/07 07:59:48;;;;;;;13.82;4.40;;;;;;;15.58;54.45;100580.16;4896907;29;20046;-96
2022/10/07 08:02:34;;;;;;;3.58;2.67;;;;;;;15.61;52.76;100576.09;4898044;29;20095;-96
2022/10/07 08:05:06;;;;;;;3.17;2.15;;;;;;;15.80;50.32;100588.06;4900597;29;20130;-96
2022/10/07 08:07:38;;;;;;;4.28;2.50;;;;;;;15.89;51.76;100586.41;4905770;29;20031;-95
2022/10/07 08:10:18;;;;;;;6.53;2.70;;;;;;;15.77;51.28;100556.00;4890682;29;20073;-94
2022/10/07 08:12:48;;;;;;;4.85;1.83;;;;;;;15.99;50.46;100563.03;4910378;29;20031;-94
2022/10/07 08:15:14;;;;;;;6.07;2.80;;;;;;;16.07;50.93;100566.00;4900273;29;20106;-93
2022/10/07 08:17:39;;;;;;;6.75;2.92;;;;;;;16.07;50.84;100557.84;4907288;29;20035;-94
2022/10/07 08:20:06;;;;;;;6.22;2.78;;;;;;;16.32;49.57;100572.47;4913061;28;20039;-92
2022/10/07 08:22:31;;;;;;;4.40;2.35;;;;;;;16.28;47.78;100553.16;4928879;28;20496;-93
2022/10/07 08:24:58;;;;;;;5.10;2.25;;;;;;;16.33;49.96;100544.16;4942979;28;20061;-94
2022/10/07 08:27:24;;;;;;;7.00;2.25;;;;;;;16.38;49.89;100540.66;4959254;28;20030;-93
2022/10/07 08:29:50;;;;;;;5.15;1.90;;;;;;;16.54;46.20;100553.88;4941369;28;20058;-92
2022/10/07 08:32:15;;;;;;;6.47;2.10;;;;;;;16.58;44.19;100540.56;4927534;28;20117;-95
2022/10/07 08:34:44;;;;;;;3.63;2.00;;;;;;;16.64;44.46;100554.91;4926842;28;20023;-93
2022/10/07 08:37:12;;;;;;;3.30;1.75;;;;;;;16.74;43.18;100547.50;4950126;28;20031;-94
2022/10/07 08:39:38;;;;;;;4.28;2.00;;;;;;;16.63;43.72;100524.19;4958615;28;20025;-93
2022/10/07 08:42:12;;;;;;;3.25;1.92;;;;;;;16.80;43.66;100551.03;4942709;28;20027;-93
2022/10/07 08:44:47;;;;;;;6.53;3.83;;;;;;;16.73;43.97;100542.38;4944255;28;20101;-94
2022/10/07 08:47:19;;;;;;;6.43;2.50;;;;;;;16.74;44.04;100525.75;4961995;28;20449;-92
2022/10/07 08:50:18;;;;;;;4.22;1.92;;;;;;;16.93;45.07;100549.63;4948408;29;20034;-95
2022/10/07 08:53:01;;;;;;;3.35;2.05;;;;;;;16.98;43.96;100522.38;4957386;28;20405;-91
2022/10/07 08:55:32;;;;;;;4.70;2.75;;;;;;;17.19;44.79;100546.75;4957486;29;20027;-93
2022/10/07 08:58:05;;;;;;;7.65;3.95;;;;;;;17.31;43.02;100539.03;4922670;29;20035;-93
2022/10/07 09:01:11;;;;;;;6.25;2.65;;;;;;;17.25;43.11;100523.81;4937785;29;20117;-94
2022/10/07 09:03:40;;;;;;;2.35;1.67;;;;;;;17.48;42.58;100544.84;4947771;28;20033;-90
2022/10/07 09:06:14;;;;;;;4.57;1.90;;;;;;;17.42;41.98;100526.13;4960622;28;20567;-93
2022/10/07 09:08:45;;;;;;;14.60;8.20;;;;;;;17.55;42.54;100528.19;4927345;28;20081;-92
2022/10/07 09:11:24;;;;;;;5.53;3.95;;;;;;;17.67;42.21;100525.06;4961472;28;20023;-95
2022/10/07 09:13:53;;;;;;;2.40;1.67;;;;;;;17.70;41.48;100511.69;4943577;28;20027;-92
2022/10/07 09:16:42;;;;;;;3.63;2.40;;;;;;;17.72;41.42;100511.41;4974664;28;20145;-94
2022/10/07 09:19:21;;;;;;;;;;;;;;;;;;;;;
2022/10/07 09:22:04;;;;;;;4.10;2.15;;;;;;;17.62;41.69;100506.03;4988070;28;20114;-96
2022/10/07 09:24:50;;;;;;;5.00;1.70;;;;;;;17.73;41.81;100505.66;4971861;28;20026;-96
2022/10/07 09:27:21;;;;;;;3.58;1.98;;;;;;;17.80;41.94;100510.75;5000647;28;20090;-94
2022/10/07 09:30:37;;;;;;;4.60;2.00;;;;;;;17.70;42.18;100486.34;4965447;28;20031;-96
2022/10/07 09:33:09;;;;;;;6.45;2.70;;;;;;;17.88;42.16;100512.88;4930756;29;20059;-96
2022/10/07 09:35:53;;;;;;;4.97;1.90;;;;;;;17.87;41.61;100496.84;4969917;28;20053;-96
2022/10/07 09:39:22;;;;;;;6.30;2.28;;;;;;;17.86;41.38;100496.00;4962871;28;20457;-96
2022/10/07 09:42:15;;;;;;;5.38;2.90;;;;;;;17.84;41.96;100490.03;4974749;28;20026;-96
2022/10/07 09:44:43;;;;;;;2.70;1.85;;;;;;;17.80;41.87;100494.41;4951774;28;20083;-96
2022/10/07 09:47:45;;;;;;;;;;;;;;;;;;;;;
2022/10/07 09:50:39;;;;;;;5.18;1.90;;;;;;;18.00;42.21;100496.16;5099450;23;20061;-95
2022/10/07 09:53:43;;;;;;;3.60;2.20;;;;;;;17.89;41.74;100468.22;4989101;28;20013;-96
2022/10/07 09:56:16;;;;;;;6.80;1.98;;;;;;;17.96;41.96;100467.84;4954499;28;20169;-95
2022/10/07 09:59:11;;;;;;;3.33;2.03;;;;;;;18.04;41.23;100485.47;4923640;29;20023;-96
2022/10/07 10:01:40;;;;;;;4.35;2.33;;;;;;;17.92;41.42;100464.88;4939239;29;20035;-94
2022/10/07 10:04:29;;;;;;;8.05;1.98;;;;;;;17.96;41.62;100474.09;4912801;29;20090;-93
2022/10/07 10:06:54;;;;;;;3.50;2.00;;;;;;;18.02;41.41;100474.06;4910094;29;20039;-95
2022/10/07 10:09:41;;;;;;;6.22;2.00;;;;;;;18.11;41.39;100484.00;4916162;29;20043;-94
2022/10/07 10:15:47;;;;;;;6.75;2.10;;;;;;;18.06;39.86;100450.56;4934592;29;20127;-94
2022/10/07 10:18:33;;;;;;;4.85;2.15;;;;;;;18.07;39.75;100465.81;4911604;29;20107;-93
2022/10/07 10:21:21;;;;;;;3.20;1.90;;;;;;;18.11;40.28;100454.03;4903563;29;20036;-94
2022/10/07 10:23:57;;;;;;;8.95;2.15;;;;;;;18.25;39.96;100456.84;4918960;29;20585;-94
2022/10/07 10:26:52;;;;;;;3.20;2.50;;;;;;;18.31;40.53;100454.88;4936148;29;20490;-95
2022/10/07 10:29:24;;;;;;;3.30;1.88;;;;;;;18.33;40.45;100439.84;4919212;29;20031;-92
2022/10/07 10:31:58;;;;;;;3.22;1.90;;;;;;;18.38;40.25;100442.47;4917550;29;20461;-95
2022/10/07 10:34:54;;;;;;;3.35;2.03;;;;;;;18.51;40.33;100443.69;4918079;29;20054;-94
2022/10/07 10:37:58;;;;;;;3.13;1.88;;;;;;;18.49;39.56;100445.91;4924284;29;20024;-94
2022/10/07 10:40:36;;;;;;;6.15;3.53;;;;;;;18.60;40.01;100430.19;4990202;28;20044;-93
2022/10/07 10:43:17;;;;;;;5.78;2.40;;;;;;;18.61;40.40;100417.34;5007279;28;20033;-95
2022/10/07 10:45:59;;;;;;;5.28;2.20;;;;;;;18.69;39.79;100414.75;4959406;28;20038;-94
2022/10/07 10:48:46;;;;;;;4.95;2.20;;;;;;;18.68;40.61;100412.34;4987819;28;20054;-93
2022/10/07 10:51:20;;;;;;;6.05;2.53;;;;;;;18.76;39.92;100411.66;4944834;28;20043;-95
2022/10/07 10:54:16;;;;;;;8.40;2.33;;;;;;;18.77;39.44;100410.53;4971836;28;20023;-95
2022/10/07 10:57:03;;;;;;;4.65;2.42;;;;;;;18.62;39.83;100394.44;4988676;28;20030;-95
2022/10/07 11:00:00;;;;;;;5.45;2.40;;;;;;;18.81;38.95;100403.41;4973488;28;20034;-96
2022/10/07 11:02:35;;;;;;;5.07;2.30;;;;;;;18.67;38.82;100376.03;4995402;28;20022;-92
2022/10/07 11:05:05;;;;;;;5.03;2.30;;;;;;;18.78;38.22;100385.72;4957840;28;20022;-93
2022/10/07 11:07:42;;;;;;;3.55;2.03;;;;;;;18.77;38.34;100367.69;4963134;28;20026;-92
2022/10/07 11:10:21;;;;;;;6.43;2.63;;;;;;;18.79;38.22;100364.69;4976923;28;20093;-95
2022/10/07 11:12:59;;;;;;;3.05;2.28;;;;;;;18.85;38.57;100366.22;4949359;28;20041;-93
2022/10/07 11:15:40;;;;;;;2.83;1.90;;;;;;;18.89;38.28;100355.53;4962703;28;20034;-93
2022/10/07 11:18:19;;;;;;;;;;;;;;;;;;;;;
2022/10/07 11:20:48;;;;;;;3.75;2.35;;;;;;;18.97;38.31;100352.91;4968265;28;20495;-93
2022/10/07 11:23:40;;;;;;;10.15;2.30;;;;;;;19.06;37.98;100357.69;4946727;28;20028;-92
2022/10/07 11:26:24;;;;;;;;;;;;;;;19.23;37.19;100371.56;4952532;28;20097;-93
2022/10/07 11:29:38;;;;;;;3.70;1.58;;;;;;;19.04;36.81;100357.19;4997680;28;19921;-91
2022/10/07 11:32:11;;;;;;;2.50;1.60;;;;;;;19.01;36.08;100342.22;4973811;28;20092;-92
2022/10/07 11:34:48;;;;;;;3.25;1.70;;;;;;;19.19;35.83;100362.34;4967810;28;20034;-92
2022/10/07 11:37:20;;;;;;;2.30;1.52;;;;;;;19.05;35.42;100335.06;4956331;28;20050;-89
2022/10/07 11:39:45;;;;;;;;;;;;;;;19.27;35.80;100363.56;4978678;28;20509;-89
2022/10/07 11:42:39;;;;;;;2.65;1.70;;;;;;;19.19;35.57;100337.78;4978212;28;19944;-90
2022/10/07 11:45:36;;;;;;;7.93;2.40;;;;;;;19.22;35.63;100330.91;4939460;28;20027;-96
2022/10/07 11:48:08;;;;;;;5.55;2.30;;;;;;;19.23;36.21;100324.34;4963848;28;20038;-94
2022/10/07 11:50:45;;;;;;;5.93;2.72;;;;;;;19.31;36.95;100342.75;4962491;28;20050;-95
2022/10/07 11:53:20;;;;;;;4.43;2.65;;;;;;;19.31;36.38;100324.44;4951972;28;20026;-96
2022/10/07 11:55:47;;;;;;;4.32;2.78;;;;;;;19.29;36.67;100320.38;4939561;28;20492;-96
2022/10/07 11:58:27;;;;;;;3.10;2.08;;;;;;;19.42;36.58;100324.22;4929996;28;20030;-95
2022/10/07 12:01:33;;;;;;;3.13;2.17;;;;;;;19.61;36.97;100341.34;4936795;28;20033;-95
2022/10/07 12:04:44;;;;;;;3.72;2.20;;;;;;;19.36;37.62;100331.69;4966241;28;20512;-96
2022/10/07 12:07:39;;;;;;;6.38;2.78;;;;;;;19.49;37.62;100349.22;4927548;28;20050;-95
2022/10/07 12:10:21;;;;;;;5.40;2.40;;;;;;;19.46;37.98;100328.78;4948330;28;20026;-96
2022/10/07 12:13:10;;;;;;;3.97;2.40;;;;;;;19.43;38.31;100318.47;4912155;29;20126;-95
2022/10/07 12:15:41;;;;;;;3.92;2.35;;;;;;;19.36;38.39;100313.41;4919309;29;20042;-96
2022/10/07 12:18:06;;;;;;;;;;;;;;;19.61;38.04;100333.13;4931623;29;20035;-96
2022/10/07 12:21:06;;;;;;;4.32;2.80;;;;;;;19.56;37.23;100335.97;4944497;29;20014;-96